Impacts TAF Board
For situational awareness. Not to be used for flight planning purposes.
IDs:

KDCA - Washington/National, VA, US

Issued at 2344 UTC 13 Dec 2018
Updated at 0540 UTC 14 Dec 2018
Potential Impact None Slight Moderate High
Time0452Z 14/06Z 14/07Z 14/08Z 14/09Z 14/10Z 14/11Z 14/12Z 14/13Z 14/14Z 14/15Z 14/16Z 14/17Z 14/18Z>>
Type OBS PRVL PRVL PRVL PRVL PRVL PRVL PRVL PRVL PRVL PRVL PRVL PRVL PRVL
VIS 10 >6 >6 >6 >6 >6 >6 >6 >6 >6 >6 >6 >6 >6
CIG 80 50 50 50 50 50 50 50 50 50 50 50 50 70
Cover OVC OVC OVC OVC OVC OVC OVC OVC OVC OVC OVC OVC OVC OVC
FltCat VFR VFR VFR VFR VFR VFR VFR VFR VFR VFR VFR VFR VFR VFR
WX -- -- -- -- -- -- -- -- -- -- -- -- -- -RA
WDir 70 180 180 180 180 180 180 180 180 180 180 180 180 VRB
WSpd 5 4 4 4 4 4 4 4 4 4 4 4 4 3
WGst -- -- -- -- -- -- -- -- -- -- -- -- -- --
Raw TAF
KDCA 132344Z 1400/1506 18004KT P6SM OVC050
  FM141800 VRB03KT P6SM -RA OVC070
  FM142200 05004KT 5SM -RA OVC030


Raw METAR
KDCA 140452Z 07005KT 10SM OVC080 07/02 A3040 RMK AO2 SLP293 T00670017 401220039
KDCA 140352Z 07006KT 10SM OVC075 07/02 A3041 RMK AO2 SLP296 T00720022
KDCA 140252Z 00000KT 10SM OVC070 08/02 A3040 RMK AO2 SLP294 T00780017 51009

METAR Board
Radar Display
Forecast Discussion
For situational awareness. Not to be used for flight planning purposes.